sensor_id;sensor_type;location;lat;lon;timestamp;pressure;altitude;pressure_sealevel;temperature;humidity
68301;BME280;55146;47.468;18.806;2022-11-28T00:00:54;101007.97;;;5.47;94.81
68301;BME280;55146;47.468;18.806;2022-11-28T00:03:19;101005.63;;;5.51;94.34
68301;BME280;55146;47.468;18.806;2022-11-28T00:05:46;101004.16;;;5.55;94.14
68301;BME280;55146;47.468;18.806;2022-11-28T00:08:12;101009.34;;;5.63;93.92
68301;BME280;55146;47.468;18.806;2022-11-28T00:10:39;101001.78;;;5.65;94.02
68301;BME280;55146;47.468;18.806;2022-11-28T00:13:05;101006.19;;;5.66;94.32
68301;BME280;55146;47.468;18.806;2022-11-28T00:15:30;101002.63;;;5.65;94.47
68301;BME280;55146;47.468;18.806;2022-11-28T00:17:55;100996.53;;;5.63;94.38
68301;BME280;55146;47.468;18.806;2022-11-28T00:20:20;100999.09;;;5.58;94.18
68301;BME280;55146;47.468;18.806;2022-11-28T00:22:46;101001.78;;;5.65;93.88
68301;BME280;55146;47.468;18.806;2022-11-28T00:25:11;100990.88;;;5.65;93.56
68301;BME280;55146;47.468;18.806;2022-11-28T00:27:36;100994.47;;;5.59;93.67
68301;BME280;55146;47.468;18.806;2022-11-28T00:30:02;100995.78;;;5.50;94.48
68301;BME280;55146;47.468;18.806;2022-11-28T00:32:28;100999.31;;;5.57;94.05
68301;BME280;55146;47.468;18.806;2022-11-28T00:34:53;101003.37;;;5.48;94.48
68301;BME280;55146;47.468;18.806;2022-11-28T00:37:18;101003.72;;;5.58;94.43
68301;BME280;55146;47.468;18.806;2022-11-28T00:39:44;101006.19;;;5.66;94.30
68301;BME280;55146;47.468;18.806;2022-11-28T00:42:09;101001.78;;;5.65;94.60
68301;BME280;55146;47.468;18.806;2022-11-28T00:44:34;101008.06;;;5.65;95.01
68301;BME280;55146;47.468;18.806;2022-11-28T00:47:00;101009.13;;;5.64;94.58
68301;BME280;55146;47.468;18.806;2022-11-28T00:49:26;101008.50;;;5.62;94.99
68301;BME280;55146;47.468;18.806;2022-11-28T00:51:51;101005.31;;;5.72;94.91
68301;BME280;55146;47.468;18.806;2022-11-28T00:54:16;101002.78;;;5.70;94.96
68301;BME280;55146;47.468;18.806;2022-11-28T00:56:42;101005.12;;;5.67;94.87
68301;BME280;55146;47.468;18.806;2022-11-28T00:59:07;101006.19;;;5.66;95.40
68301;BME280;55146;47.468;18.806;2022-11-28T01:01:38;101008.72;;;5.67;95.55
68301;BME280;55146;47.468;18.806;2022-11-28T01:04:07;101010.31;;;5.75;95.29
68301;BME280;55146;47.468;18.806;2022-11-28T01:06:40;101002.75;;;5.77;95.05
68301;BME280;55146;47.468;18.806;2022-11-28T01:09:11;100992.00;;;5.82;94.88
68301;BME280;55146;47.468;18.806;2022-11-28T01:11:39;101002.91;;;5.82;95.00
68301;BME280;55146;47.468;18.806;2022-11-28T01:14:05;100994.72;;;5.82;95.10
68301;BME280;55146;47.468;18.806;2022-11-28T01:16:31;100985.69;;;5.82;95.29
68301;BME280;55146;47.468;18.806;2022-11-28T01:18:56;100993.88;;;5.88;95.02
68301;BME280;55146;47.468;18.806;2022-11-28T01:21:22;100987.56;;;5.88;95.27
68301;BME280;55146;47.468;18.806;2022-11-28T01:23:48;100986.72;;;5.87;95.30
68301;BME280;55146;47.468;18.806;2022-11-28T01:26:20;100990.56;;;5.80;95.54
68301;BME280;55146;47.468;18.806;2022-11-28T01:28:47;100989.78;;;5.73;95.68
68301;BME280;55146;47.468;18.806;2022-11-28T01:31:19;100983.06;;;5.68;95.80
68301;BME280;55146;47.468;18.806;2022-11-28T01:33:45;100987.41;;;5.76;95.95
68301;BME280;55146;47.468;18.806;2022-11-28T01:36:11;100989.31;;;5.76;95.89
68301;BME280;55146;47.468;18.806;2022-11-28T01:38:37;100985.78;;;5.68;96.55
68301;BME280;55146;47.468;18.806;2022-11-28T01:41:03;100976.50;;;5.76;96.55
68301;BME280;55146;47.468;18.806;2022-11-28T01:43:28;100976.97;;;5.73;96.35
68301;BME280;55146;47.468;18.806;2022-11-28T01:45:54;100972.13;;;5.68;96.32
68301;BME280;55146;47.468;18.806;2022-11-28T01:48:24;100968.84;;;5.60;96.53
68301;BME280;55146;47.468;18.806;2022-11-28T01:50:53;100964.44;;;5.59;96.72
68301;BME280;55146;47.468;18.806;2022-11-28T01:53:20;100956.09;;;5.54;96.69
68301;BME280;55146;47.468;18.806;2022-11-28T01:55:52;100955.25;;;5.53;97.08
68301;BME280;55146;47.468;18.806;2022-11-28T01:58:19;100954.38;;;5.59;96.51
68301;BME280;55146;47.468;18.806;2022-11-28T02:00:46;100955.72;;;5.44;97.07
68301;BME280;55146;47.468;18.806;2022-11-28T02:03:19;100950.19;;;5.57;96.67
68301;BME280;55146;47.468;18.806;2022-11-28T02:05:47;100946.34;;;5.64;96.48
68301;BME280;55146;47.468;18.806;2022-11-28T02:08:14;100940.50;;;5.61;96.32
68301;BME280;55146;47.468;18.806;2022-11-28T02:10:57;100937.88;;;5.48;96.78
68301;BME280;55146;47.468;18.806;2022-11-28T02:13:49;100946.63;;;5.56;96.78
68301;BME280;55146;47.468;18.806;2022-11-28T02:22:11;100933.16;;;5.61;96.83
68301;BME280;55146;47.468;18.806;2022-11-28T02:30:17;100935.31;;;5.53;97.12
68301;BME280;55146;47.468;18.806;2022-11-28T02:35:34;100931.84;;;5.39;97.69
68301;BME280;55146;47.468;18.806;2022-11-28T02:38:23;100932.25;;;5.43;97.67
68301;BME280;55146;47.468;18.806;2022-11-28T02:47:11;100920.97;;;5.33;95.86
68301;BME280;55146;47.468;18.806;2022-11-28T02:49:46;100910.56;;;5.23;96.50
68301;BME280;55146;47.468;18.806;2022-11-28T02:52:33;100909.50;;;5.24;95.93
68301;BME280;55146;47.468;18.806;2022-11-28T02:55:00;100912.03;;;5.19;96.33
68301;BME280;55146;47.468;18.806;2022-11-28T02:57:46;100910.16;;;5.13;96.38
68301;BME280;55146;47.468;18.806;2022-11-28T03:00:31;100914.78;;;5.12;95.56
68301;BME280;55146;47.468;18.806;2022-11-28T03:03:08;100910.16;;;5.13;95.49
68301;BME280;55146;47.468;18.806;2022-11-28T03:11:47;100898.91;;;5.03;95.40
68301;BME280;55146;47.468;18.806;2022-11-28T03:25:56;100891.91;;;4.75;94.40
68301;BME280;55146;47.468;18.806;2022-11-28T03:28:41;100889.06;;;4.57;94.88
68301;BME280;55146;47.468;18.806;2022-11-28T03:31:12;100875.84;;;4.61;94.83
68301;BME280;55146;47.468;18.806;2022-11-28T03:33:44;100880.50;;;4.54;94.96
68301;BME280;55146;47.468;18.806;2022-11-28T03:36:18;100868.34;;;4.56;94.10
68301;BME280;55146;47.468;18.806;2022-11-28T03:38:51;100862.69;;;4.44;94.87
68301;BME280;55146;47.468;18.806;2022-11-28T03:41:30;100858.53;;;4.42;94.86
68301;BME280;55146;47.468;18.806;2022-11-28T03:43:59;100860.63;;;4.40;95.01
68301;BME280;55146;47.468;18.806;2022-11-28T03:46:34;100854.34;;;4.39;95.05
68301;BME280;55146;47.468;18.806;2022-11-28T03:49:01;100857.25;;;4.44;95.56
68301;BME280;55146;47.468;18.806;2022-11-28T03:51:32;100859.19;;;4.37;95.42
68301;BME280;55146;47.468;18.806;2022-11-28T03:56:47;100849.56;;;4.35;96.48
68301;BME280;55146;47.468;18.806;2022-11-28T03:59:24;100842.62;;;4.39;96.78
68301;BME280;55146;47.468;18.806;2022-11-28T04:04:34;100837.13;;;4.52;96.64
68301;BME280;55146;47.468;18.806;2022-11-28T04:07:10;100837.06;;;4.65;96.37
68301;BME280;55146;47.468;18.806;2022-11-28T04:09:47;100835.66;;;4.56;96.52
68301;BME280;55146;47.468;18.806;2022-11-28T04:12:22;100840.25;;;4.56;96.78
68301;BME280;55146;47.468;18.806;2022-11-28T04:14:56;100838.97;;;4.58;96.93
68301;BME280;55146;47.468;18.806;2022-11-28T04:20:18;100829.34;;;4.62;97.13
68301;BME280;55146;47.468;18.806;2022-11-28T04:22:50;100829.13;;;4.57;97.36
68301;BME280;55146;47.468;18.806;2022-11-28T04:25:19;100824.47;;;4.64;96.85
68301;BME280;55146;47.468;18.806;2022-11-28T04:27:53;100831.41;;;4.67;97.18
68301;BME280;55146;47.468;18.806;2022-11-28T04:30:20;100827.37;;;4.69;96.89
68301;BME280;55146;47.468;18.806;2022-11-28T04:32:51;100823.41;;;4.72;97.15
68301;BME280;55146;47.468;18.806;2022-11-28T04:35:26;100825.69;;;4.75;96.84
68301;BME280;55146;47.468;18.806;2022-11-28T04:37:54;100823.34;;;4.78;96.34
68301;BME280;55146;47.468;18.806;2022-11-28T04:40:22;100824.81;;;4.81;96.26
68301;BME280;55146;47.468;18.806;2022-11-28T04:42:58;100827.28;;;4.89;95.96
68301;BME280;55146;47.468;18.806;2022-11-28T04:45:38;100829.81;;;4.84;96.33
68301;BME280;55146;47.468;18.806;2022-11-28T04:48:07;100826.25;;;4.83;96.17
68301;BME280;55146;47.468;18.806;2022-11-28T04:50:59;100831.47;;;4.92;95.79
68301;BME280;55146;47.468;18.806;2022-11-28T04:53:55;100821.06;;;4.75;96.90
68301;BME280;55146;47.468;18.806;2022-11-28T04:56:37;100817.06;;;4.78;96.50
68301;BME280;55146;47.468;18.806;2022-11-28T04:59:05;100812.87;;;4.75;97.17
68301;BME280;55146;47.468;18.806;2022-11-28T05:01:32;100815.19;;;4.78;97.24
68301;BME280;55146;47.468;18.806;2022-11-28T05:03:59;100820.00;;;4.76;96.77
68301;BME280;55146;47.468;18.806;2022-11-28T05:06:27;100826.50;;;4.75;96.92
68301;BME280;55146;47.468;18.806;2022-11-28T05:08:53;100824.41;;;4.77;96.57
68301;BME280;55146;47.468;18.806;2022-11-28T05:11:19;100823.34;;;4.78;96.25
68301;BME280;55146;47.468;18.806;2022-11-28T05:13:45;100832.03;;;4.69;96.51
68301;BME280;55146;47.468;18.806;2022-11-28T05:16:10;100840.19;;;4.69;97.24
68301;BME280;55146;47.468;18.806;2022-11-28T05:18:37;100830.94;;;4.70;97.21
68301;BME280;55146;47.468;18.806;2022-11-28T05:21:03;100841.59;;;4.78;97.06
68301;BME280;55146;47.468;18.806;2022-11-28T05:23:32;100838.88;;;4.78;97.33
68301;BME280;55146;47.468;18.806;2022-11-28T05:25:57;100837.63;;;4.80;97.29
68301;BME280;55146;47.468;18.806;2022-11-28T05:28:22;100850.16;;;4.81;97.41
68301;BME280;55146;47.468;18.806;2022-11-28T05:30:59;100854.84;;;4.74;97.85
68301;BME280;55146;47.468;18.806;2022-11-28T05:33:24;100850.81;;;4.77;97.53
68301;BME280;55146;47.468;18.806;2022-11-28T05:35:50;100852.25;;;4.86;97.41
68301;BME280;55146;47.468;18.806;2022-11-28T05:38:15;100852.72;;;4.76;97.50
68301;BME280;55146;47.468;18.806;2022-11-28T05:40:40;100862.59;;;4.71;96.75
68301;BME280;55146;47.468;18.806;2022-11-28T05:43:09;100856.28;;;4.77;96.64
68301;BME280;55146;47.468;18.806;2022-11-28T05:45:39;100859.88;;;4.71;96.12
68301;BME280;55146;47.468;18.806;2022-11-28T05:48:05;100850.69;;;4.65;96.22
68301;BME280;55146;47.468;18.806;2022-11-28T05:50:30;100855.47;;;4.70;96.40
68301;BME280;55146;47.468;18.806;2022-11-28T05:52:55;100852.12;;;4.74;95.80
68301;BME280;55146;47.468;18.806;2022-11-28T05:55:20;100852.75;;;4.70;95.94
68301;BME280;55146;47.468;18.806;2022-11-28T05:57:46;100854.03;;;4.67;95.83
68301;BME280;55146;47.468;18.806;2022-11-28T06:00:11;100856.28;;;4.77;95.91
68301;BME280;55146;47.468;18.806;2022-11-28T06:02:38;100850.16;;;4.81;95.94
68301;BME280;55146;47.468;18.806;2022-11-28T06:05:04;100859.44;;;4.74;95.74
68301;BME280;55146;47.468;18.806;2022-11-28T06:07:30;100865.94;;;4.73;95.77
68301;BME280;55146;47.468;18.806;2022-11-28T06:09:55;100860.31;;;4.68;96.22
68301;BME280;55146;47.468;18.806;2022-11-28T06:12:20;100866.97;;;4.78;96.14
68301;BME280;55146;47.468;18.806;2022-11-28T06:14:45;100859.22;;;4.75;95.79
68301;BME280;55146;47.468;18.806;2022-11-28T06:17:11;100856.69;;;4.80;95.88
68301;BME280;55146;47.468;18.806;2022-11-28T06:19:36;100863.16;;;4.86;95.56
68301;BME280;55146;47.468;18.806;2022-11-28T06:22:01;100854.81;;;4.81;94.96
68301;BME280;55146;47.468;18.806;2022-11-28T06:24:27;100851.03;;;4.75;95.16
68301;BME280;55146;47.468;18.806;2022-11-28T06:26:52;100856.69;;;4.80;94.75
68301;BME280;55146;47.468;18.806;2022-11-28T06:29:19;100857.56;;;4.74;94.96
68301;BME280;55146;47.468;18.806;2022-11-28T06:31:44;100852.53;;;4.71;95.48
68301;BME280;55146;47.468;18.806;2022-11-28T06:34:10;100850.66;;;4.72;95.22
68301;BME280;55146;47.468;18.806;2022-11-28T06:36:37;100853.34;;;4.78;95.34
68301;BME280;55146;47.468;18.806;2022-11-28T06:39:02;100845.16;;;4.78;94.70
68301;BME280;55146;47.468;18.806;2022-11-28T06:41:27;100848.13;;;4.70;94.95
68301;BME280;55146;47.468;18.806;2022-11-28T06:43:54;100853.13;;;4.80;94.20
68301;BME280;55146;47.468;18.806;2022-11-28T06:46:20;100853.59;;;4.70;95.23
68301;BME280;55146;47.468;18.806;2022-11-28T06:48:48;100858.78;;;4.78;94.83
68301;BME280;55146;47.468;18.806;2022-11-28T06:51:14;100861.13;;;4.75;94.95
68301;BME280;55146;47.468;18.806;2022-11-28T06:53:40;100864.91;;;4.74;95.14
68301;BME280;55146;47.468;18.806;2022-11-28T06:56:11;100863.63;;;4.76;95.02
68301;BME280;55146;47.468;18.806;2022-11-28T06:58:38;100861.06;;;4.81;95.17
68301;BME280;55146;47.468;18.806;2022-11-28T07:03:31;100862.62;;;4.64;96.17
68301;BME280;55146;47.468;18.806;2022-11-28T07:06:01;100854.06;;;4.61;96.28
68301;BME280;55146;47.468;18.806;2022-11-28T07:08:27;100857.13;;;4.77;94.93
68301;BME280;55146;47.468;18.806;2022-11-28T07:10:53;100856.91;;;4.79;94.96
68301;BME280;55146;47.468;18.806;2022-11-28T07:13:21;100859.88;;;4.71;95.46
68301;BME280;55146;47.468;18.806;2022-11-28T07:15:48;100863.50;;;4.58;96.54
68301;BME280;55146;47.468;18.806;2022-11-28T07:18:14;100872.28;;;4.67;96.07
68301;BME280;55146;47.468;18.806;2022-11-28T07:20:39;100863.84;;;4.75;95.46
68301;BME280;55146;47.468;18.806;2022-11-28T07:23:05;100867.84;;;4.72;95.49
68301;BME280;55146;47.468;18.806;2022-11-28T07:25:31;100864.66;;;4.75;95.00
68301;BME280;55146;47.468;18.806;2022-11-28T07:27:56;100862.38;;;4.72;95.51
68301;BME280;55146;47.468;18.806;2022-11-28T07:30:23;100868.09;;;4.58;96.23
68301;BME280;55146;47.468;18.806;2022-11-28T07:32:48;100864.47;;;4.70;95.52
68301;BME280;55146;47.468;18.806;2022-11-28T07:35:14;100862.38;;;4.72;95.52
68301;BME280;55146;47.468;18.806;2022-11-28T07:37:39;100868.03;;;4.71;95.83
68301;BME280;55146;47.468;18.806;2022-11-28T07:40:05;100862.56;;;4.77;95.61
68301;BME280;55146;47.468;18.806;2022-11-28T07:42:30;100856.75;;;4.67;95.38
68301;BME280;55146;47.468;18.806;2022-11-28T07:44:56;100853.19;;;4.67;95.37
68301;BME280;55146;47.468;18.806;2022-11-28T07:47:21;100852.50;;;4.78;94.73
68301;BME280;55146;47.468;18.806;2022-11-28T07:49:46;100847.25;;;4.76;95.00
68301;BME280;55146;47.468;18.806;2022-11-28T07:52:12;100844.38;;;4.65;95.10
68301;BME280;55146;47.468;18.806;2022-11-28T07:54:37;100834.34;;;4.65;95.39
68301;BME280;55146;47.468;18.806;2022-11-28T07:57:02;100841.00;;;4.69;94.77
68301;BME280;55146;47.468;18.806;2022-11-28T07:59:28;100835.78;;;4.68;94.74
68301;BME280;55146;47.468;18.806;2022-11-28T08:01:53;100844.19;;;4.66;95.49
68301;BME280;55146;47.468;18.806;2022-11-28T08:04:19;100849.78;;;4.78;95.11
68301;BME280;55146;47.468;18.806;2022-11-28T08:06:44;100835.38;;;4.64;95.55
68301;BME280;55146;47.468;18.806;2022-11-28T08:09:10;100835.56;;;4.69;95.44
68301;BME280;55146;47.468;18.806;2022-11-28T08:11:36;100835.31;;;4.77;95.11
68301;BME280;55146;47.468;18.806;2022-11-28T08:14:02;100833.13;;;4.93;93.39
68301;BME280;55146;47.468;18.806;2022-11-28T08:16:28;100839.19;;;4.95;92.70
68301;BME280;55146;47.468;18.806;2022-11-28T08:18:55;100839.22;;;4.88;92.58
68301;BME280;55146;47.468;18.806;2022-11-28T08:21:27;100839.25;;;4.81;92.11
68301;BME280;55146;47.468;18.806;2022-11-28T08:23:54;100843.09;;;4.74;92.62
68301;BME280;55146;47.468;18.806;2022-11-28T08:26:24;100844.91;;;4.86;91.95
68301;BME280;55146;47.468;18.806;2022-11-28T08:28:49;100846.81;;;4.86;90.50
68301;BME280;55146;47.468;18.806;2022-11-28T08:31:20;100844.81;;;4.68;90.76
68301;BME280;55146;47.468;18.806;2022-11-28T08:33:47;100848.62;;;4.61;91.40
68301;BME280;55146;47.468;18.806;2022-11-28T08:36:14;100845.25;;;4.59;91.31
68301;BME280;55146;47.468;18.806;2022-11-28T08:38:40;100855.03;;;4.73;90.68
68301;BME280;55146;47.468;18.806;2022-11-28T08:41:26;100852.53;;;4.71;90.41
68301;BME280;55146;47.468;18.806;2022-11-28T08:43:51;100845.16;;;4.78;89.18
68301;BME280;55146;47.468;18.806;2022-11-28T08:46:19;100850.63;;;4.78;88.89
68301;BME280;55146;47.468;18.806;2022-11-28T08:48:45;100853.38;;;4.72;88.11
68301;BME280;55146;47.468;18.806;2022-11-28T08:51:16;100851.31;;;4.67;87.31
68301;BME280;55146;47.468;18.806;2022-11-28T08:53:42;100849.19;;;4.69;87.12
68301;BME280;55146;47.468;18.806;2022-11-28T08:56:08;100855.91;;;4.67;86.45
68301;BME280;55146;47.468;18.806;2022-11-28T08:58:33;100851.72;;;4.64;86.73
68301;BME280;55146;47.468;18.806;2022-11-28T09:00:59;100850.91;;;4.57;86.09
68301;BME280;55146;47.468;18.806;2022-11-28T09:03:24;100856.78;;;4.61;86.10
68301;BME280;55146;47.468;18.806;2022-11-28T09:05:50;100864.53;;;4.57;86.58
68301;BME280;55146;47.468;18.806;2022-11-28T09:08:17;100844.41;;;4.58;86.32
68301;BME280;55146;47.468;18.806;2022-11-28T09:10:44;100845.88;;;4.61;86.75
68301;BME280;55146;47.468;18.806;2022-11-28T09:13:11;100852.22;;;4.55;86.15
68301;BME280;55146;47.468;18.806;2022-11-28T09:15:41;100851.53;;;4.59;85.81
68301;BME280;55146;47.468;18.806;2022-11-28T09:18:07;100846.09;;;4.59;85.67
68301;BME280;55146;47.468;18.806;2022-11-28T09:20:33;100854.91;;;4.61;86.28
68301;BME280;55146;47.468;18.806;2022-11-28T09:22:59;100849.56;;;4.79;84.79
68301;BME280;55146;47.468;18.806;2022-11-28T09:25:24;100850.22;;;4.75;83.11
68301;BME280;55146;47.468;18.806;2022-11-28T09:27:49;100852.53;;;4.71;83.59
68301;BME280;55146;47.468;18.806;2022-11-28T09:30:15;100847.00;;;4.46;84.60
68301;BME280;55146;47.468;18.806;2022-11-28T09:32:41;100842.31;;;4.60;84.93
68301;BME280;55146;47.468;18.806;2022-11-28T09:35:07;100833.78;;;4.50;84.38
68301;BME280;55146;47.468;18.806;2022-11-28T09:37:32;100829.78;;;4.53;83.40
68301;BME280;55146;47.468;18.806;2022-11-28T09:39:58;100820.41;;;4.42;84.47
68301;BME280;55146;47.468;18.806;2022-11-28T09:42:29;100825.16;;;4.53;83.34
68301;BME280;55146;47.468;18.806;2022-11-28T09:45:01;100824.34;;;4.46;84.82
68301;BME280;55146;47.468;18.806;2022-11-28T09:47:30;100815.94;;;4.54;84.38
68301;BME280;55146;47.468;18.806;2022-11-28T09:50:13;100807.97;;;4.59;84.42
68301;BME280;55146;47.468;18.806;2022-11-28T09:53:01;100812.22;;;4.48;84.08
68301;BME280;55146;47.468;18.806;2022-11-28T09:55:39;100796.06;;;4.47;83.17
68301;BME280;55146;47.468;18.806;2022-11-28T09:58:18;100798.81;;;4.40;83.20
68301;BME280;55146;47.468;18.806;2022-11-28T10:03:42;100795.72;;;4.37;83.28
68301;BME280;55146;47.468;18.806;2022-11-28T10:06:19;100795.00;;;4.55;83.43
68301;BME280;55146;47.468;18.806;2022-11-28T10:11:37;100800.44;;;4.55;87.10
68301;BME280;55146;47.468;18.806;2022-11-28T10:14:41;100792.03;;;4.63;88.16
68301;BME280;55146;47.468;18.806;2022-11-28T10:20:05;100785.69;;;4.69;87.01
68301;BME280;55146;47.468;18.806;2022-11-28T10:22:49;100790.28;;;4.75;87.34
68301;BME280;55146;47.468;18.806;2022-11-28T10:25:28;100780.13;;;4.82;86.78
68301;BME280;55146;47.468;18.806;2022-11-28T10:27:55;100782.69;;;4.77;87.08
68301;BME280;55146;47.468;18.806;2022-11-28T10:30:23;100776.66;;;4.75;88.04
68301;BME280;55146;47.468;18.806;2022-11-28T10:34:01;100770.78;;;4.71;86.63
68301;BME280;55146;47.468;18.806;2022-11-28T10:36:15;100764.81;;;4.87;84.04
68301;BME280;55146;47.468;18.806;2022-11-28T10:38:44;100762.19;;;4.74;83.95
68301;BME280;55146;47.468;18.806;2022-11-28T10:41:32;100764.53;;;4.64;83.51
68301;BME280;55146;47.468;18.806;2022-11-28T10:44:13;100759.75;;;4.60;84.73
68301;BME280;55146;47.468;18.806;2022-11-28T10:46:49;100755.53;;;4.64;84.42
68301;BME280;55146;47.468;18.806;2022-11-28T10:57:23;100749.19;;;4.38;82.84
68301;BME280;55146;47.468;18.806;2022-11-28T11:00:07;100748.19;;;4.26;83.95
68301;BME280;55146;47.468;18.806;2022-11-28T11:05:04;100742.19;;;4.56;81.45
68301;BME280;55146;47.468;18.806;2022-11-28T11:07:32;100740.41;;;4.36;82.45
68301;BME280;55146;47.468;18.806;2022-11-28T11:10:17;100743.97;;;4.37;82.65
68301;BME280;55146;47.468;18.806;2022-11-28T11:12:44;100742.19;;;4.56;81.68
68301;BME280;55146;47.468;18.806;2022-11-28T11:17:41;100747.12;;;4.65;82.87
68301;BME280;55146;47.468;18.806;2022-11-28T11:20:29;100747.06;;;4.78;82.12
68301;BME280;55146;47.468;18.806;2022-11-28T11:22:56;100744.12;;;4.80;81.33
68301;BME280;55146;47.468;18.806;2022-11-28T11:25:23;100739.50;;;4.80;79.22
68301;BME280;55146;47.468;18.806;2022-11-28T11:27:51;100733.84;;;4.75;81.02
68301;BME280;55146;47.468;18.806;2022-11-28T11:30:25;100733.62;;;4.77;80.52
68301;BME280;55146;47.468;18.806;2022-11-28T11:32:51;100739.94;;;4.77;80.41
68301;BME280;55146;47.468;18.806;2022-11-28T11:35:29;100735.69;;;4.81;80.49
68301;BME280;55146;47.468;18.806;2022-11-28T11:40:46;100728.34;;;4.82;80.55
68301;BME280;55146;47.468;18.806;2022-11-28T11:43:27;100734.34;;;4.66;80.32
68301;BME280;55146;47.468;18.806;2022-11-28T11:46:07;100728.53;;;4.62;80.53
68301;BME280;55146;47.468;18.806;2022-11-28T11:48:35;100729.47;;;4.74;80.26
68301;BME280;55146;47.468;18.806;2022-11-28T11:51:00;100724.41;;;4.78;80.15
68301;BME280;55146;47.468;18.806;2022-11-28T11:53:26;100732.63;;;4.71;80.07
68301;BME280;55146;47.468;18.806;2022-11-28T11:55:52;100731.38;;;4.74;80.57
68301;BME280;55146;47.468;18.806;2022-11-28T11:58:25;100715.81;;;4.81;80.46
68301;BME280;55146;47.468;18.806;2022-11-28T12:00:53;100714.97;;;4.80;80.42
68301;BME280;55146;47.468;18.806;2022-11-28T12:03:28;100721.22;;;4.87;81.09
68301;BME280;55146;47.468;18.806;2022-11-28T12:05:59;100715.31;;;4.91;80.00
68301;BME280;55146;47.468;18.806;2022-11-28T12:08:33;100706.75;;;4.87;79.72
68301;BME280;55146;47.468;18.806;2022-11-28T12:11:13;100709.13;;;4.77;80.19
68301;BME280;55146;47.468;18.806;2022-11-28T12:13:40;100703.41;;;4.85;80.96
68301;BME280;55146;47.468;18.806;2022-11-28T12:16:30;100699.94;;;4.96;81.10
68301;BME280;55146;47.468;18.806;2022-11-28T12:21:41;100688.88;;;4.91;80.61
68301;BME280;55146;47.468;18.806;2022-11-28T12:24:20;100685.31;;;4.91;81.24
68301;BME280;55146;47.468;18.806;2022-11-28T12:27:05;100680.91;;;4.89;80.93
68301;BME280;55146;47.468;18.806;2022-11-28T12:32:35;100682.97;;;4.94;81.06
68301;BME280;55146;47.468;18.806;2022-11-28T12:46:30;100673.31;;;4.98;79.24
68301;BME280;55146;47.468;18.806;2022-11-28T12:52:28;100670.78;;;4.97;78.82
68301;BME280;55146;47.468;18.806;2022-11-28T12:55:19;100662.84;;;4.95;80.09
68301;BME280;55146;47.468;18.806;2022-11-28T12:57:56;100673.97;;;4.94;79.58
68301;BME280;55146;47.468;18.806;2022-11-28T13:00:26;100662.34;;;5.05;79.29
68301;BME280;55146;47.468;18.806;2022-11-28T13:03:34;100668.13;;;4.90;80.56
68301;BME280;55146;47.468;18.806;2022-11-28T13:09:00;100665.84;;;4.87;79.03
68301;BME280;55146;47.468;18.806;2022-11-28T13:11:35;100661.00;;;4.89;79.17
68301;BME280;55146;47.468;18.806;2022-11-28T13:22:26;100658.34;;;4.82;79.57
68301;BME280;55146;47.468;18.806;2022-11-28T13:25:11;100663.13;;;4.87;79.76
68301;BME280;55146;47.468;18.806;2022-11-28T13:28:03;100671.84;;;4.71;80.68
68301;BME280;55146;47.468;18.806;2022-11-28T13:30:38;100658.56;;;4.81;80.26
68301;BME280;55146;47.468;18.806;2022-11-28T13:33:27;100662.94;;;4.82;80.86
68301;BME280;55146;47.468;18.806;2022-11-28T13:35:58;100663.97;;;4.87;79.35
68301;BME280;55146;47.468;18.806;2022-11-28T13:38:44;100661.16;;;4.94;79.92
68301;BME280;55146;47.468;18.806;2022-11-28T13:41:23;100656.22;;;4.84;79.75
68301;BME280;55146;47.468;18.806;2022-11-28T13:44:32;100646.38;;;4.83;79.62
68301;BME280;55146;47.468;18.806;2022-11-28T13:47:24;100643.50;;;4.78;80.22
68301;BME280;55146;47.468;18.806;2022-11-28T13:55:37;100647.09;;;4.72;80.80
68301;BME280;55146;47.468;18.806;2022-11-28T14:01:05;100645.59;;;4.76;80.63
68301;BME280;55146;47.468;18.806;2022-11-28T14:03:34;100647.28;;;4.77;81.46
68301;BME280;55146;47.468;18.806;2022-11-28T14:06:03;100645.47;;;4.89;80.96
68301;BME280;55146;47.468;18.806;2022-11-28T14:08:40;100646.78;;;4.87;80.43
68301;BME280;55146;47.468;18.806;2022-11-28T14:22:58;100644.37;;;4.97;81.47
68301;BME280;55146;47.468;18.806;2022-11-28T14:25:38;100631.47;;;4.86;81.86
68301;BME280;55146;47.468;18.806;2022-11-28T14:28:15;100643.22;;;4.86;81.41
68301;BME280;55146;47.468;18.806;2022-11-28T14:30:44;100632.63;;;4.97;81.41
68301;BME280;55146;47.468;18.806;2022-11-28T14:33:17;100633.81;;;4.82;82.20
68301;BME280;55146;47.468;18.806;2022-11-28T14:41:07;100633.53;;;4.66;83.81
68301;BME280;55146;47.468;18.806;2022-11-28T14:43:39;100630.50;;;4.56;84.62
68301;BME280;55146;47.468;18.806;2022-11-28T14:48:40;100628.59;;;4.81;83.68
68301;BME280;55146;47.468;18.806;2022-11-28T14:51:07;100624.03;;;4.75;84.26
68301;BME280;55146;47.468;18.806;2022-11-28T14:56:26;100622.06;;;4.82;83.65
68301;BME280;55146;47.468;18.806;2022-11-28T14:58:56;100631.44;;;4.68;84.48
68301;BME280;55146;47.468;18.806;2022-11-28T15:01:40;100635.88;;;4.62;84.79
68301;BME280;55146;47.468;18.806;2022-11-28T15:04:35;100631.44;;;4.68;84.45
68301;BME280;55146;47.468;18.806;2022-11-28T15:07:15;100637.41;;;4.52;85.32
68301;BME280;55146;47.468;18.806;2022-11-28T15:15:17;100625.34;;;4.41;85.84
68301;BME280;55146;47.468;18.806;2022-11-28T15:17:46;100625.62;;;4.33;86.21
68301;BME280;55146;47.468;18.806;2022-11-28T15:20:39;100635.19;;;4.42;85.93
68301;BME280;55146;47.468;18.806;2022-11-28T15:23:41;100632.53;;;4.35;86.33
68301;BME280;55146;47.468;18.806;2022-11-28T15:26:19;100635.62;;;4.39;86.28
68301;BME280;55146;47.468;18.806;2022-11-28T15:28:44;100630.00;;;4.34;86.21
68301;BME280;55146;47.468;18.806;2022-11-28T15:31:19;100630.22;;;4.32;86.24